sensor_id;sensor_type;location;lat;lon;timestamp;temperature;humidity
20574;DHT22;10445;50.216;7.912;2023-04-25T00:02:21;6.30;99.90
20574;DHT22;10445;50.216;7.912;2023-04-25T00:05:10;6.30;99.90
20574;DHT22;10445;50.216;7.912;2023-04-25T00:07:59;6.30;99.90
20574;DHT22;10445;50.216;7.912;2023-04-25T00:10:49;6.30;99.90
20574;DHT22;10445;50.216;7.912;2023-04-25T00:13:38;6.30;99.90
20574;DHT22;10445;50.216;7.912;2023-04-25T00:16:29;6.30;99.90
20574;DHT22;10445;50.216;7.912;2023-04-25T00:19:22;6.30;99.90
20574;DHT22;10445;50.216;7.912;2023-04-25T00:22:11;6.20;99.90
20574;DHT22;10445;50.216;7.912;2023-04-25T00:25:00;6.30;99.90
20574;DHT22;10445;50.216;7.912;2023-04-25T00:27:52;6.20;99.90
20574;DHT22;10445;50.216;7.912;2023-04-25T00:30:41;6.20;99.90
20574;DHT22;10445;50.216;7.912;2023-04-25T00:33:30;6.10;99.90
20574;DHT22;10445;50.216;7.912;2023-04-25T00:36:19;6.10;99.90
20574;DHT22;10445;50.216;7.912;2023-04-25T00:39:08;6.10;99.90
20574;DHT22;10445;50.216;7.912;2023-04-25T00:41:56;6.10;99.90
20574;DHT22;10445;50.216;7.912;2023-04-25T00:44:47;6.10;99.90
20574;DHT22;10445;50.216;7.912;2023-04-25T00:47:36;6.00;99.90
20574;DHT22;10445;50.216;7.912;2023-04-25T00:50:26;6.00;99.90
20574;DHT22;10445;50.216;7.912;2023-04-25T00:53:14;6.00;99.90
20574;DHT22;10445;50.216;7.912;2023-04-25T00:56:03;6.00;99.90
20574;DHT22;10445;50.216;7.912;2023-04-25T00:58:53;6.00;99.90
20574;DHT22;10445;50.216;7.912;2023-04-25T01:01:45;6.00;99.90
20574;DHT22;10445;50.216;7.912;2023-04-25T01:04:34;6.00;99.90
20574;DHT22;10445;50.216;7.912;2023-04-25T01:07:23;6.10;99.90
20574;DHT22;10445;50.216;7.912;2023-04-25T01:10:12;6.00;99.90
20574;DHT22;10445;50.216;7.912;2023-04-25T01:13:01;6.00;99.90
20574;DHT22;10445;50.216;7.912;2023-04-25T01:15:50;5.90;99.90
20574;DHT22;10445;50.216;7.912;2023-04-25T01:18:40;5.90;99.90
20574;DHT22;10445;50.216;7.912;2023-04-25T01:21:31;5.90;99.90
20574;DHT22;10445;50.216;7.912;2023-04-25T01:24:20;5.90;99.90
20574;DHT22;10445;50.216;7.912;2023-04-25T01:27:09;5.90;99.90
20574;DHT22;10445;50.216;7.912;2023-04-25T01:29:59;5.90;99.90
20574;DHT22;10445;50.216;7.912;2023-04-25T01:32:49;5.90;99.90
20574;DHT22;10445;50.216;7.912;2023-04-25T01:35:38;5.90;99.90
20574;DHT22;10445;50.216;7.912;2023-04-25T01:38:29;5.80;99.90
20574;DHT22;10445;50.216;7.912;2023-04-25T01:41:18;5.80;99.90
20574;DHT22;10445;50.216;7.912;2023-04-25T01:44:08;5.70;99.90
20574;DHT22;10445;50.216;7.912;2023-04-25T01:46:57;5.70;99.90
20574;DHT22;10445;50.216;7.912;2023-04-25T01:49:46;5.60;99.90
20574;DHT22;10445;50.216;7.912;2023-04-25T01:52:35;5.60;99.90
20574;DHT22;10445;50.216;7.912;2023-04-25T01:55:25;5.50;99.90
20574;DHT22;10445;50.216;7.912;2023-04-25T01:58:14;5.50;99.90
20574;DHT22;10445;50.216;7.912;2023-04-25T02:01:02;5.40;99.90
20574;DHT22;10445;50.216;7.912;2023-04-25T02:03:51;5.30;99.90
20574;DHT22;10445;50.216;7.912;2023-04-25T02:06:41;5.20;99.90
20574;DHT22;10445;50.216;7.912;2023-04-25T02:09:30;5.20;99.90
20574;DHT22;10445;50.216;7.912;2023-04-25T02:12:20;5.20;99.90
20574;DHT22;10445;50.216;7.912;2023-04-25T02:15:09;5.10;99.90
20574;DHT22;10445;50.216;7.912;2023-04-25T02:17:59;5.10;99.90
20574;DHT22;10445;50.216;7.912;2023-04-25T02:20:48;5.10;99.90
20574;DHT22;10445;50.216;7.912;2023-04-25T02:23:37;5.00;99.90
20574;DHT22;10445;50.216;7.912;2023-04-25T02:26:26;5.00;99.90
20574;DHT22;10445;50.216;7.912;2023-04-25T02:29:16;4.90;99.90
20574;DHT22;10445;50.216;7.912;2023-04-25T02:32:05;4.90;99.90
20574;DHT22;10445;50.216;7.912;2023-04-25T02:34:54;4.80;99.90
20574;DHT22;10445;50.216;7.912;2023-04-25T02:37:42;4.80;99.90
20574;DHT22;10445;50.216;7.912;2023-04-25T02:40:31;4.80;99.90
20574;DHT22;10445;50.216;7.912;2023-04-25T02:43:20;4.80;99.90
20574;DHT22;10445;50.216;7.912;2023-04-25T02:46:10;4.80;99.90
20574;DHT22;10445;50.216;7.912;2023-04-25T02:48:59;4.80;99.90
20574;DHT22;10445;50.216;7.912;2023-04-25T02:51:48;4.80;99.90
20574;DHT22;10445;50.216;7.912;2023-04-25T02:54:37;4.70;99.90
20574;DHT22;10445;50.216;7.912;2023-04-25T02:57:26;4.70;99.90
20574;DHT22;10445;50.216;7.912;2023-04-25T03:00:15;4.60;99.90
20574;DHT22;10445;50.216;7.912;2023-04-25T03:03:05;4.50;99.90
20574;DHT22;10445;50.216;7.912;2023-04-25T03:05:54;4.50;99.90
20574;DHT22;10445;50.216;7.912;2023-04-25T03:08:43;4.50;99.90
20574;DHT22;10445;50.216;7.912;2023-04-25T03:11:31;4.60;99.90
20574;DHT22;10445;50.216;7.912;2023-04-25T03:14:20;4.60;99.90
20574;DHT22;10445;50.216;7.912;2023-04-25T03:17:09;4.60;99.90
20574;DHT22;10445;50.216;7.912;2023-04-25T03:19:59;4.50;99.90
20574;DHT22;10445;50.216;7.912;2023-04-25T03:22:48;4.50;99.90
20574;DHT22;10445;50.216;7.912;2023-04-25T03:25:37;4.40;99.90
20574;DHT22;10445;50.216;7.912;2023-04-25T03:28:26;4.40;99.90
20574;DHT22;10445;50.216;7.912;2023-04-25T03:31:15;4.40;99.90
20574;DHT22;10445;50.216;7.912;2023-04-25T03:34:03;4.30;99.90
20574;DHT22;10445;50.216;7.912;2023-04-25T03:36:53;4.30;99.90
20574;DHT22;10445;50.216;7.912;2023-04-25T03:39:42;4.20;99.90
20574;DHT22;10445;50.216;7.912;2023-04-25T03:42:31;4.10;99.90
20574;DHT22;10445;50.216;7.912;2023-04-25T03:45:19;4.10;99.90
20574;DHT22;10445;50.216;7.912;2023-04-25T03:48:08;4.00;99.90
20574;DHT22;10445;50.216;7.912;2023-04-25T03:50:57;4.00;99.90
20574;DHT22;10445;50.216;7.912;2023-04-25T03:53:47;4.00;99.90
20574;DHT22;10445;50.216;7.912;2023-04-25T03:56:37;4.00;99.90
20574;DHT22;10445;50.216;7.912;2023-04-25T03:59:26;3.90;99.90
20574;DHT22;10445;50.216;7.912;2023-04-25T04:02:14;3.90;99.90
20574;DHT22;10445;50.216;7.912;2023-04-25T04:05:03;3.90;99.90
20574;DHT22;10445;50.216;7.912;2023-04-25T04:07:53;3.80;99.90
20574;DHT22;10445;50.216;7.912;2023-04-25T04:10:44;3.80;99.90
20574;DHT22;10445;50.216;7.912;2023-04-25T04:13:32;3.80;99.90
20574;DHT22;10445;50.216;7.912;2023-04-25T04:16:21;3.70;99.90
20574;DHT22;10445;50.216;7.912;2023-04-25T04:19:10;3.70;99.90
20574;DHT22;10445;50.216;7.912;2023-04-25T04:21:59;3.70;99.90
20574;DHT22;10445;50.216;7.912;2023-04-25T04:24:47;3.70;99.90
20574;DHT22;10445;50.216;7.912;2023-04-25T04:27:38;3.70;99.90
20574;DHT22;10445;50.216;7.912;2023-04-25T04:30:28;3.70;99.90
20574;DHT22;10445;50.216;7.912;2023-04-25T04:33:18;3.70;99.90
20574;DHT22;10445;50.216;7.912;2023-04-25T04:36:07;3.70;99.90
20574;DHT22;10445;50.216;7.912;2023-04-25T04:38:56;3.80;99.90
20574;DHT22;10445;50.216;7.912;2023-04-25T04:41:45;3.80;99.90
20574;DHT22;10445;50.216;7.912;2023-04-25T04:44:35;3.80;99.90
20574;DHT22;10445;50.216;7.912;2023-04-25T04:47:23;3.90;99.90
20574;DHT22;10445;50.216;7.912;2023-04-25T04:50:13;3.90;99.90
20574;DHT22;10445;50.216;7.912;2023-04-25T04:53:03;4.00;99.90
20574;DHT22;10445;50.216;7.912;2023-04-25T04:55:52;4.00;99.90
20574;DHT22;10445;50.216;7.912;2023-04-25T04:58:41;4.20;99.90
20574;DHT22;10445;50.216;7.912;2023-04-25T05:01:31;4.10;99.90
20574;DHT22;10445;50.216;7.912;2023-04-25T05:04:19;4.30;99.90
20574;DHT22;10445;50.216;7.912;2023-04-25T05:07:08;4.30;99.90
20574;DHT22;10445;50.216;7.912;2023-04-25T05:09:57;4.40;99.90
20574;DHT22;10445;50.216;7.912;2023-04-25T05:12:46;4.40;99.90
20574;DHT22;10445;50.216;7.912;2023-04-25T05:15:34;4.40;99.90
20574;DHT22;10445;50.216;7.912;2023-04-25T05:18:24;4.50;99.90
20574;DHT22;10445;50.216;7.912;2023-04-25T05:21:13;4.50;99.90
20574;DHT22;10445;50.216;7.912;2023-04-25T05:24:02;4.60;99.90
20574;DHT22;10445;50.216;7.912;2023-04-25T05:26:51;4.60;99.90
20574;DHT22;10445;50.216;7.912;2023-04-25T05:29:40;4.60;99.90
20574;DHT22;10445;50.216;7.912;2023-04-25T05:32:29;4.70;99.90
20574;DHT22;10445;50.216;7.912;2023-04-25T05:35:19;4.80;99.90
20574;DHT22;10445;50.216;7.912;2023-04-25T05:38:08;4.90;99.90
20574;DHT22;10445;50.216;7.912;2023-04-25T05:40:56;5.10;99.90
20574;DHT22;10445;50.216;7.912;2023-04-25T05:43:45;5.40;99.90
20574;DHT22;10445;50.216;7.912;2023-04-25T05:46:37;5.70;99.90
20574;DHT22;10445;50.216;7.912;2023-04-25T05:49:26;6.00;99.00
20574;DHT22;10445;50.216;7.912;2023-04-25T05:52:16;6.30;94.40
20574;DHT22;10445;50.216;7.912;2023-04-25T05:55:05;6.40;85.60
20574;DHT22;10445;50.216;7.912;2023-04-25T05:57:54;6.40;85.60
20574;DHT22;10445;50.216;7.912;2023-04-25T06:00:43;6.50;86.40
20574;DHT22;10445;50.216;7.912;2023-04-25T06:03:31;6.50;83.90
20574;DHT22;10445;50.216;7.912;2023-04-25T06:06:21;6.30;82.10
20574;DHT22;10445;50.216;7.912;2023-04-25T06:09:11;6.00;82.60
20574;DHT22;10445;50.216;7.912;2023-04-25T06:12:00;5.90;87.70
20574;DHT22;10445;50.216;7.912;2023-04-25T06:14:49;5.80;87.30
20574;DHT22;10445;50.216;7.912;2023-04-25T06:17:38;5.50;89.20
20574;DHT22;10445;50.216;7.912;2023-04-25T06:20:27;5.50;90.80
20574;DHT22;10445;50.216;7.912;2023-04-25T06:23:15;5.30;91.70
20574;DHT22;10445;50.216;7.912;2023-04-25T06:26:06;5.30;91.20
20574;DHT22;10445;50.216;7.912;2023-04-25T06:28:54;5.20;93.10
20574;DHT22;10445;50.216;7.912;2023-04-25T06:31:43;5.30;94.10
20574;DHT22;10445;50.216;7.912;2023-04-25T06:34:32;5.40;91.80
20574;DHT22;10445;50.216;7.912;2023-04-25T06:37:21;5.40;90.90
20574;DHT22;10445;50.216;7.912;2023-04-25T06:40:09;5.50;89.90
20574;DHT22;10445;50.216;7.912;2023-04-25T06:42:59;5.50;91.10
20574;DHT22;10445;50.216;7.912;2023-04-25T06:45:48;5.60;87.60
20574;DHT22;10445;50.216;7.912;2023-04-25T06:48:37;5.60;85.90
20574;DHT22;10445;50.216;7.912;2023-04-25T06:51:25;5.70;87.00
20574;DHT22;10445;50.216;7.912;2023-04-25T06:54:16;5.80;87.10
20574;DHT22;10445;50.216;7.912;2023-04-25T06:57:05;6.20;86.10
20574;DHT22;10445;50.216;7.912;2023-04-25T06:59:55;6.30;82.00
20574;DHT22;10445;50.216;7.912;2023-04-25T07:02:43;6.40;78.40
20574;DHT22;10445;50.216;7.912;2023-04-25T07:05:32;6.50;78.50
20574;DHT22;10445;50.216;7.912;2023-04-25T07:08:21;6.50;76.10
20574;DHT22;10445;50.216;7.912;2023-04-25T07:11:10;6.50;80.10
20574;DHT22;10445;50.216;7.912;2023-04-25T07:13:58;6.30;79.10
20574;DHT22;10445;50.216;7.912;2023-04-25T07:16:48;6.30;79.90
20574;DHT22;10445;50.216;7.912;2023-04-25T07:19:37;6.30;82.10
20574;DHT22;10445;50.216;7.912;2023-04-25T07:22:27;6.20;80.00
20574;DHT22;10445;50.216;7.912;2023-04-25T07:25:16;6.10;79.40
20574;DHT22;10445;50.216;7.912;2023-04-25T07:28:06;6.10;78.00
20574;DHT22;10445;50.216;7.912;2023-04-25T07:30:54;6.00;80.50
20574;DHT22;10445;50.216;7.912;2023-04-25T07:33:45;6.00;79.10
20574;DHT22;10445;50.216;7.912;2023-04-25T07:36:33;6.00;80.10
20574;DHT22;10445;50.216;7.912;2023-04-25T07:39:22;6.00;78.30
20574;DHT22;10445;50.216;7.912;2023-04-25T07:42:11;6.20;78.90
20574;DHT22;10445;50.216;7.912;2023-04-25T07:45:00;6.30;79.20
20574;DHT22;10445;50.216;7.912;2023-04-25T07:47:49;6.40;80.10
20574;DHT22;10445;50.216;7.912;2023-04-25T07:50:40;6.40;76.10
20574;DHT22;10445;50.216;7.912;2023-04-25T07:53:28;6.30;74.90
20574;DHT22;10445;50.216;7.912;2023-04-25T07:56:17;6.40;75.80
20574;DHT22;10445;50.216;7.912;2023-04-25T07:59:06;6.40;78.00
20574;DHT22;10445;50.216;7.912;2023-04-25T08:01:54;6.50;77.30
20574;DHT22;10445;50.216;7.912;2023-04-25T08:04:44;6.50;74.70
20574;DHT22;10445;50.216;7.912;2023-04-25T08:07:35;6.60;72.30
20574;DHT22;10445;50.216;7.912;2023-04-25T08:10:23;6.80;73.40
20574;DHT22;10445;50.216;7.912;2023-04-25T08:13:12;6.90;72.50
20574;DHT22;10445;50.216;7.912;2023-04-25T08:16:01;7.00;62.80
20574;DHT22;10445;50.216;7.912;2023-04-25T08:18:50;7.20;65.10
20574;DHT22;10445;50.216;7.912;2023-04-25T08:21:39;7.50;60.80
20574;DHT22;10445;50.216;7.912;2023-04-25T08:52:32;7.20;54.80
20574;DHT22;10445;50.216;7.912;2023-04-25T08:55:22;7.10;55.10
20574;DHT22;10445;50.216;7.912;2023-04-25T08:58:11;6.90;54.10
20574;DHT22;10445;50.216;7.912;2023-04-25T09:01:00;7.00;56.60
20574;DHT22;10445;50.216;7.912;2023-04-25T09:03:49;7.20;61.70
20574;DHT22;10445;50.216;7.912;2023-04-25T09:06:38;7.70;47.80
20574;DHT22;10445;50.216;7.912;2023-04-25T09:09:29;8.20;42.20
20574;DHT22;10445;50.216;7.912;2023-04-25T09:12:18;8.70;33.50
20574;DHT22;10445;50.216;7.912;2023-04-25T09:15:09;9.00;32.30
20574;DHT22;10445;50.216;7.912;2023-04-25T09:17:59;9.00;25.50
20574;DHT22;10445;50.216;7.912;2023-04-25T09:20:48;8.50;21.80
20574;DHT22;10445;50.216;7.912;2023-04-25T09:23:41;8.20;30.60
20574;DHT22;10445;50.216;7.912;2023-04-25T09:26:31;8.10;35.20
20574;DHT22;10445;50.216;7.912;2023-04-25T09:29:29;7.80;35.00
20574;DHT22;10445;50.216;7.912;2023-04-25T09:32:19;8.00;44.00
20574;DHT22;10445;50.216;7.912;2023-04-25T09:35:09;8.30;39.40
20574;DHT22;10445;50.216;7.912;2023-04-25T09:37:58;8.50;32.30
20574;DHT22;10445;50.216;7.912;2023-04-25T09:40:47;8.40;29.80
20574;DHT22;10445;50.216;7.912;2023-04-25T09:43:39;8.30;27.40
20574;DHT22;10445;50.216;7.912;2023-04-25T09:46:33;8.00;29.50
20574;DHT22;10445;50.216;7.912;2023-04-25T09:49:25;7.90;32.60
20574;DHT22;10445;50.216;7.912;2023-04-25T09:52:15;7.90;37.30
20574;DHT22;10445;50.216;7.912;2023-04-25T09:55:05;7.90;34.50
20574;DHT22;10445;50.216;7.912;2023-04-25T09:57:54;7.90;36.10
20574;DHT22;10445;50.216;7.912;2023-04-25T10:00:47;7.70;35.10
20574;DHT22;10445;50.216;7.912;2023-04-25T10:03:37;7.60;31.30
20574;DHT22;10445;50.216;7.912;2023-04-25T10:06:27;7.30;35.00
20574;DHT22;10445;50.216;7.912;2023-04-25T10:09:17;7.40;34.00
20574;DHT22;10445;50.216;7.912;2023-04-25T10:12:07;7.40;36.30
20574;DHT22;10445;50.216;7.912;2023-04-25T10:14:58;7.40;35.50
20574;DHT22;10445;50.216;7.912;2023-04-25T10:17:49;7.40;36.60
20574;DHT22;10445;50.216;7.912;2023-04-25T10:20:38;7.40;39.70
20574;DHT22;10445;50.216;7.912;2023-04-25T10:23:27;7.40;30.80
20574;DHT22;10445;50.216;7.912;2023-04-25T10:45:07;9.30;9.10
20574;DHT22;10445;50.216;7.912;2023-04-25T10:47:56;9.80;7.70
20574;DHT22;10445;50.216;7.912;2023-04-25T10:50:45;9.50;7.90
20574;DHT22;10445;50.216;7.912;2023-04-25T10:53:34;9.10;5.40
20574;DHT22;10445;50.216;7.912;2023-04-25T10:56:25;8.90;8.20
20574;DHT22;10445;50.216;7.912;2023-04-25T10:59:16;9.00;7.90
20574;DHT22;10445;50.216;7.912;2023-04-25T11:02:12;8.90;10.10
20574;DHT22;10445;50.216;7.912;2023-04-25T11:05:01;9.20;4.90
20574;DHT22;10445;50.216;7.912;2023-04-25T11:07:52;9.30;1.10
20574;DHT22;10445;50.216;7.912;2023-04-25T11:10:53;9.10;1.50
20574;DHT22;10445;50.216;7.912;2023-04-25T11:13:43;8.90;1.00
20574;DHT22;10445;50.216;7.912;2023-04-25T11:16:34;8.70;1.30
20574;DHT22;10445;50.216;7.912;2023-04-25T11:19:27;8.60;1.00
20574;DHT22;10445;50.216;7.912;2023-04-25T11:22:16;8.40;1.60
20574;DHT22;10445;50.216;7.912;2023-04-25T11:25:05;8.50;1.00
20574;DHT22;10445;50.216;7.912;2023-04-25T11:27:56;8.50;1.00
20574;DHT22;10445;50.216;7.912;2023-04-25T11:30:48;8.90;1.00
20574;DHT22;10445;50.216;7.912;2023-04-25T11:33:37;9.00;1.00
20574;DHT22;10445;50.216;7.912;2023-04-25T11:36:29;9.10;1.00
20574;DHT22;10445;50.216;7.912;2023-04-25T11:39:18;9.30;1.00
20574;DHT22;10445;50.216;7.912;2023-04-25T11:42:07;9.10;1.00
20574;DHT22;10445;50.216;7.912;2023-04-25T11:45:00;9.10;1.00
20574;DHT22;10445;50.216;7.912;2023-04-25T11:47:49;9.30;1.00
20574;DHT22;10445;50.216;7.912;2023-04-25T11:50:39;9.40;1.00
20574;DHT22;10445;50.216;7.912;2023-04-25T11:53:29;9.70;1.00
20574;DHT22;10445;50.216;7.912;2023-04-25T11:56:17;10.00;1.00
20574;DHT22;10445;50.216;7.912;2023-04-25T11:59:06;11.00;1.00
20574;DHT22;10445;50.216;7.912;2023-04-25T12:01:55;11.30;1.00
20574;DHT22;10445;50.216;7.912;2023-04-25T12:04:45;11.10;1.00
20574;DHT22;10445;50.216;7.912;2023-04-25T12:07:33;10.30;1.00
20574;DHT22;10445;50.216;7.912;2023-04-25T12:10:24;9.90;1.00
20574;DHT22;10445;50.216;7.912;2023-04-25T12:13:21;9.70;1.00
20574;DHT22;10445;50.216;7.912;2023-04-25T12:16:10;10.30;1.00
20574;DHT22;10445;50.216;7.912;2023-04-25T12:18:59;10.40;1.00
20574;DHT22;10445;50.216;7.912;2023-04-25T12:21:48;10.50;1.00
20574;DHT22;10445;50.216;7.912;2023-04-25T12:24:45;11.30;1.00
20574;DHT22;10445;50.216;7.912;2023-04-25T12:27:35;11.70;1.00
20574;DHT22;10445;50.216;7.912;2023-04-25T12:30:24;11.50;1.00
20574;DHT22;10445;50.216;7.912;2023-04-25T12:33:12;11.00;1.00
20574;DHT22;10445;50.216;7.912;2023-04-25T12:36:02;10.40;1.00
20574;DHT22;10445;50.216;7.912;2023-04-25T12:38:55;11.20;1.00
20574;DHT22;10445;50.216;7.912;2023-04-25T12:42:16;13.30;1.00
20574;DHT22;10445;50.216;7.912;2023-04-25T12:45:07;14.60;1.00
20574;DHT22;10445;50.216;7.912;2023-04-25T12:48:24;15.00;1.00
20574;DHT22;10445;50.216;7.912;2023-04-25T12:51:20;14.10;1.00
20574;DHT22;10445;50.216;7.912;2023-04-25T12:54:15;14.30;1.00
20574;DHT22;10445;50.216;7.912;2023-04-25T12:57:03;13.40;1.00
20574;DHT22;10445;50.216;7.912;2023-04-25T12:59:52;12.70;1.00
20574;DHT22;10445;50.216;7.912;2023-04-25T13:02:48;12.20;1.00
20574;DHT22;10445;50.216;7.912;2023-04-25T13:05:38;11.70;1.00
20574;DHT22;10445;50.216;7.912;2023-04-25T13:08:27;11.60;1.00
20574;DHT22;10445;50.216;7.912;2023-04-25T13:11:16;11.80;1.00
20574;DHT22;10445;50.216;7.912;2023-04-25T13:14:05;11.30;1.00
20574;DHT22;10445;50.216;7.912;2023-04-25T13:16:53;10.50;1.00
20574;DHT22;10445;50.216;7.912;2023-04-25T13:19:45;9.80;1.00
20574;DHT22;10445;50.216;7.912;2023-04-25T13:22:40;9.50;1.00
20574;DHT22;10445;50.216;7.912;2023-04-25T13:25:29;9.40;1.00
20574;DHT22;10445;50.216;7.912;2023-04-25T13:28:19;10.10;1.00
20574;DHT22;10445;50.216;7.912;2023-04-25T13:31:08;11.40;1.00
20574;DHT22;10445;50.216;7.912;2023-04-25T13:33:57;12.20;1.00
20574;DHT22;10445;50.216;7.912;2023-04-25T13:36:47;13.20;1.00
20574;DHT22;10445;50.216;7.912;2023-04-25T13:39:36;12.30;1.00
20574;DHT22;10445;50.216;7.912;2023-04-25T13:42:25;11.00;1.00
20574;DHT22;10445;50.216;7.912;2023-04-25T13:45:16;10.10;1.00
20574;DHT22;10445;50.216;7.912;2023-04-25T13:48:05;9.50;1.00
20574;DHT22;10445;50.216;7.912;2023-04-25T13:50:54;9.20;1.00
20574;DHT22;10445;50.216;7.912;2023-04-25T13:53:44;8.80;1.00
20574;DHT22;10445;50.216;7.912;2023-04-25T13:56:33;8.70;1.00
20574;DHT22;10445;50.216;7.912;2023-04-25T13:59:22;8.50;1.00
20574;DHT22;10445;50.216;7.912;2023-04-25T14:02:11;8.50;1.00
20574;DHT22;10445;50.216;7.912;2023-04-25T14:05:04;8.50;1.00
20574;DHT22;10445;50.216;7.912;2023-04-25T14:08:00;8.60;1.00
20574;DHT22;10445;50.216;7.912;2023-04-25T14:10:51;8.70;1.00
20574;DHT22;10445;50.216;7.912;2023-04-25T14:13:39;8.70;1.00
20574;DHT22;10445;50.216;7.912;2023-04-25T14:16:29;8.90;1.00
20574;DHT22;10445;50.216;7.912;2023-04-25T14:19:18;9.10;1.00
20574;DHT22;10445;50.216;7.912;2023-04-25T14:22:08;9.30;1.00
20574;DHT22;10445;50.216;7.912;2023-04-25T14:24:57;9.10;1.00
20574;DHT22;10445;50.216;7.912;2023-04-25T14:27:48;9.20;1.00
20574;DHT22;10445;50.216;7.912;2023-04-25T14:30:37;9.70;1.00
20574;DHT22;10445;50.216;7.912;2023-04-25T14:33:26;10.30;1.00
20574;DHT22;10445;50.216;7.912;2023-04-25T14:36:15;11.00;1.00
20574;DHT22;10445;50.216;7.912;2023-04-25T14:39:04;11.10;1.00
20574;DHT22;10445;50.216;7.912;2023-04-25T14:41:53;10.60;1.00
20574;DHT22;10445;50.216;7.912;2023-04-25T14:44:43;10.20;1.00
20574;DHT22;10445;50.216;7.912;2023-04-25T14:47:32;9.90;1.00
20574;DHT22;10445;50.216;7.912;2023-04-25T14:50:21;9.50;1.00
20574;DHT22;10445;50.216;7.912;2023-04-25T14:53:09;9.20;1.00
20574;DHT22;10445;50.216;7.912;2023-04-25T14:55:58;8.90;1.00
20574;DHT22;10445;50.216;7.912;2023-04-25T14:58:47;8.70;1.00
20574;DHT22;10445;50.216;7.912;2023-04-25T15:01:37;8.80;1.00
20574;DHT22;10445;50.216;7.912;2023-04-25T15:04:25;8.80;1.00
20574;DHT22;10445;50.216;7.912;2023-04-25T15:07:15;8.90;1.00
20574;DHT22;10445;50.216;7.912;2023-04-25T15:10:07;9.00;1.00
20574;DHT22;10445;50.216;7.912;2023-04-25T15:13:03;8.90;1.00
20574;DHT22;10445;50.216;7.912;2023-04-25T15:15:52;8.80;1.00
20574;DHT22;10445;50.216;7.912;2023-04-25T15:18:42;8.80;1.00
20574;DHT22;10445;50.216;7.912;2023-04-25T15:21:31;8.80;1.00
20574;DHT22;10445;50.216;7.912;2023-04-25T15:24:20;8.90;1.00
20574;DHT22;10445;50.216;7.912;2023-04-25T15:27:09;8.90;1.00
20574;DHT22;10445;50.216;7.912;2023-04-25T15:29:57;8.90;1.00
20574;DHT22;10445;50.216;7.912;2023-04-25T15:32:47;8.90;1.00
20574;DHT22;10445;50.216;7.912;2023-04-25T15:35:37;8.80;1.00
20574;DHT22;10445;50.216;7.912;2023-04-25T15:38:25;8.80;1.00
20574;DHT22;10445;50.216;7.912;2023-04-25T15:41:14;8.60;1.00
20574;DHT22;10445;50.216;7.912;2023-04-25T15:44:02;8.70;1.00
20574;DHT22;10445;50.216;7.912;2023-04-25T15:46:52;8.90;1.00
20574;DHT22;10445;50.216;7.912;2023-04-25T15:49:41;8.80;1.00
20574;DHT22;10445;50.216;7.912;2023-04-25T15:52:31;8.90;1.00
20574;DHT22;10445;50.216;7.912;2023-04-25T15:55:20;8.90;1.00
20574;DHT22;10445;50.216;7.912;2023-04-25T15:58:08;8.80;1.00
20574;DHT22;10445;50.216;7.912;2023-04-25T16:01:00;8.70;1.00
20574;DHT22;10445;50.216;7.912;2023-04-25T16:04:05;8.80;1.00
20574;DHT22;10445;50.216;7.912;2023-04-25T16:06:54;8.70;1.00
20574;DHT22;10445;50.216;7.912;2023-04-25T16:09:44;8.60;1.00
20574;DHT22;10445;50.216;7.912;2023-04-25T16:12:33;8.60;1.00
20574;DHT22;10445;50.216;7.912;2023-04-25T16:15:22;8.70;1.00
20574;DHT22;10445;50.216;7.912;2023-04-25T16:18:11;8.50;1.00
20574;DHT22;10445;50.216;7.912;2023-04-25T16:20:59;8.40;1.00
20574;DHT22;10445;50.216;7.912;2023-04-25T16:23:48;8.30;1.00
20574;DHT22;10445;50.216;7.912;2023-04-25T16:26:38;8.20;1.00
20574;DHT22;10445;50.216;7.912;2023-04-25T16:29:28;8.10;1.00
20574;DHT22;10445;50.216;7.912;2023-04-25T16:32:17;8.10;1.00
20574;DHT22;10445;50.216;7.912;2023-04-25T16:35:06;8.00;1.00
20574;DHT22;10445;50.216;7.912;2023-04-25T16:37:55;8.00;1.00
20574;DHT22;10445;50.216;7.912;2023-04-25T16:40:44;8.00;1.00
20574;DHT22;10445;50.216;7.912;2023-04-25T16:43:34;8.00;1.00
20574;DHT22;10445;50.216;7.912;2023-04-25T16:46:22;8.00;1.00
20574;DHT22;10445;50.216;7.912;2023-04-25T16:49:11;8.10;1.00
20574;DHT22;10445;50.216;7.912;2023-04-25T16:52:00;8.00;1.00
20574;DHT22;10445;50.216;7.912;2023-04-25T16:54:48;8.10;1.00
20574;DHT22;10445;50.216;7.912;2023-04-25T16:57:37;8.00;1.00
20574;DHT22;10445;50.216;7.912;2023-04-25T17:00:27;8.00;1.00
20574;DHT22;10445;50.216;7.912;2023-04-25T17:03:16;7.90;1.00
20574;DHT22;10445;50.216;7.912;2023-04-25T17:06:05;8.00;1.00
20574;DHT22;10445;50.216;7.912;2023-04-25T17:08:53;7.80;1.00
20574;DHT22;10445;50.216;7.912;2023-04-25T17:11:42;7.70;1.00
20574;DHT22;10445;50.216;7.912;2023-04-25T17:14:31;7.60;1.00
20574;DHT22;10445;50.216;7.912;2023-04-25T17:17:23;7.50;1.00
20574;DHT22;10445;50.216;7.912;2023-04-25T17:20:12;7.40;1.00
20574;DHT22;10445;50.216;7.912;2023-04-25T17:23:01;7.40;1.00
20574;DHT22;10445;50.216;7.912;2023-04-25T17:25:50;7.30;1.00
20574;DHT22;10445;50.216;7.912;2023-04-25T17:28:39;7.20;1.00
20574;DHT22;10445;50.216;7.912;2023-04-25T17:31:31;7.10;1.00
20574;DHT22;10445;50.216;7.912;2023-04-25T17:34:21;7.10;1.00
20574;DHT22;10445;50.216;7.912;2023-04-25T17:37:09;7.10;1.00
20574;DHT22;10445;50.216;7.912;2023-04-25T17:40:02;7.10;1.00
20574;DHT22;10445;50.216;7.912;2023-04-25T17:42:53;7.00;1.00
20574;DHT22;10445;50.216;7.912;2023-04-25T17:45:41;6.90;1.00
20574;DHT22;10445;50.216;7.912;2023-04-25T17:48:30;6.90;1.00
20574;DHT22;10445;50.216;7.912;2023-04-25T17:51:20;6.90;1.00
20574;DHT22;10445;50.216;7.912;2023-04-25T17:54:08;6.80;1.00
20574;DHT22;10445;50.216;7.912;2023-04-25T17:56:57;6.80;1.00
20574;DHT22;10445;50.216;7.912;2023-04-25T17:59:46;6.80;1.00
20574;DHT22;10445;50.216;7.912;2023-04-25T18:02:34;6.80;1.00
20574;DHT22;10445;50.216;7.912;2023-04-25T18:05:23;6.80;1.00
20574;DHT22;10445;50.216;7.912;2023-04-25T18:08:16;6.80;1.00
20574;DHT22;10445;50.216;7.912;2023-04-25T18:11:05;6.70;1.00
20574;DHT22;10445;50.216;7.912;2023-04-25T18:13:53;6.70;1.00
20574;DHT22;10445;50.216;7.912;2023-04-25T18:16:43;6.60;1.00
20574;DHT22;10445;50.216;7.912;2023-04-25T18:19:32;6.50;1.00
20574;DHT22;10445;50.216;7.912;2023-04-25T18:22:21;6.50;1.00
20574;DHT22;10445;50.216;7.912;2023-04-25T18:25:11;6.50;1.00
20574;DHT22;10445;50.216;7.912;2023-04-25T18:28:00;6.40;1.00
20574;DHT22;10445;50.216;7.912;2023-04-25T18:30:49;6.40;1.00
20574;DHT22;10445;50.216;7.912;2023-04-25T18:33:38;6.30;1.00
20574;DHT22;10445;50.216;7.912;2023-04-25T18:36:26;6.40;1.00
20574;DHT22;10445;50.216;7.912;2023-04-25T18:39:15;6.40;1.00
20574;DHT22;10445;50.216;7.912;2023-04-25T18:42:10;6.30;1.00
20574;DHT22;10445;50.216;7.912;2023-04-25T18:44:59;6.30;1.00
20574;DHT22;10445;50.216;7.912;2023-04-25T18:47:48;6.20;1.00
20574;DHT22;10445;50.216;7.912;2023-04-25T18:50:36;6.10;1.00
20574;DHT22;10445;50.216;7.912;2023-04-25T18:53:25;6.10;1.00
20574;DHT22;10445;50.216;7.912;2023-04-25T18:56:14;6.00;1.00
20574;DHT22;10445;50.216;7.912;2023-04-25T18:59:04;6.10;1.00
20574;DHT22;10445;50.216;7.912;2023-04-25T19:01:53;6.00;1.00
20574;DHT22;10445;50.216;7.912;2023-04-25T19:04:42;6.00;1.00